Thunder radar more information blitzortung!


Rain radar more information rain snow radar


   Es ist keine erhoehte Aufmerksamkeit aufgrund des Wetters notwendig.   -   Es gibt keine Warnungen :-).

METAR-Meldungen aus der Umgebung

Warning: A non-numeric value encountered in /mnt/web301/a1/70/5400070/htdocs/weather28/metar/metarDisplay.php on line 166 Warning: A non-numeric value encountered in /mnt/web301/a1/70/5400070/htdocs/weather28/metar/metarDisplay.php on line 166 Warning: A non-numeric value encountered in /mnt/web301/a1/70/5400070/htdocs/weather28/metar/metarDisplay.php on line 166 Warning: A non-numeric value encountered in /mnt/web301/a1/70/5400070/htdocs/weather28/metar/metarDisplay.php on line 166 Warning: A non-numeric value encountered in /mnt/web301/a1/70/5400070/htdocs/weather28/metar/metarDisplay.php on line 166 Warning: A non-numeric value encountered in /mnt/web301/a1/70/5400070/htdocs/weather28/metar/metarDisplay.php on line 166
   
EBBR - Brussels International Airport, Belgium
Entfernung von der Station bis: W 14 km
Aktualisierung: 21-04-2019 15:50
Klar  
Klar  
   Wind: Osten 11.1 km/h
Wind: Osten 11.1 km/h
Temperatur: 23°C
Taupunkt: 6°C
Luftfeuchte: 33%
Luftdruck: 1018 hPa
Sichtbarkeit: More than 10 km
Bewölkung: Klar
EBBR 211350Z 09006KT 050V140 CAVOK 23/06 Q1018 NOSIG
EBBE - Beauvechain (Bevekom), Belgium
Entfernung von der Station bis: SSO 17 km
Aktualisierung: 21-04-2019 15:55
Klar  
Klar  
   Wind: ONO 5.6 km/h
Wind: ONO 5.6 km/h
Temperatur: 23°C
Taupunkt: 3°C
Luftfeuchte: 27%
Luftdruck: 1018 hPa
Bewölkt: Klar
Sichtbarkeit: More than 10 km
Bewölkung: Klar
EBBE 211355Z AUTO 06003KT 9999 NCD 23/03 Q1018 BLU
EBDT - Schaffen, Belgium
Entfernung von der Station bis: ONO 29 km
Aktualisierung: 21-04-2019 15:55
Klar  
Klar  
   Wind: variiert 3.7 km/h
Wind: variiert 3.7 km/h
Temperatur: 25°C
Taupunkt: 4°C
Luftfeuchte: 26%
Luftdruck: 1017 hPa
Bewölkt: Klar
Sichtbarkeit: More than 10 km
Bewölkung: Klar
EBDT 211355Z AUTO VRB02KT 9999 NCD 25/04 Q1017 BLU
EBAW - Antwerp/Deurne, Belgium
Entfernung von der Station bis: NNW 38 km
Aktualisierung: 21-04-2019 15:50
Klar  
Klar  
   Wind: variiert 9.3 km/h
Wind: variiert 9.3 km/h
Temperatur: 24°C
Taupunkt: 5°C
Luftfeuchte: 29%
Luftdruck: 1017 hPa
Sichtbarkeit: More than 10 km
Bewölkung: Klar
EBAW 211350Z VRB05KT CAVOK 24/05 Q1017 NOSIG
EBCI - Charleroi/Gosselies, Belgium
Entfernung von der Station bis: SSW 51 km
Aktualisierung: 21-04-2019 15:50
Klar  
Klar  
   Wind: NO 14.8 km/h
Wind: NO 14.8 km/h
Temperatur: 23°C
Taupunkt: 4°C
Luftfeuchte: 29%
Luftdruck: 1017 hPa
Sichtbarkeit: More than 10 km
Bewölkung: Klar
EBCI 211350Z 05008KT 020V110 CAVOK 23/04 Q1017 NOSIG
EBLG - Bierset/Liege, Belgium
Entfernung von der Station bis: OSO 60 km
Aktualisierung: 21-04-2019 15:50
Klar  
Klar  
   Wind: NO 24.1 km/h
Wind: NO 24.1 km/h
Temperatur: 23°C
Taupunkt: 4°C
Luftfeuchte: 29%
Luftdruck: 1017 hPa
Sichtbarkeit: More than 10 km
Bewölkung: Klar
EBLG 211350Z 05013KT CAVOK 23/04 Q1017 NOSIG

Script entwickelt von  Saratoga-weather.org Angepasst für das Template von  Weerstation Leuven